sensor_id;sensor_type;location;lat;lon;timestamp;pressure;altitude;pressure_sealevel;temperature;humidity
79366;BME280;68833;53.160;17.920;2024-03-25T00:00:43;99132.65;;;4.58;82.09
79366;BME280;68833;53.160;17.920;2024-03-25T00:03:30;99131.30;;;4.54;81.73
79366;BME280;68833;53.160;17.920;2024-03-25T00:05:57;99132.02;;;4.52;81.95
79366;BME280;68833;53.160;17.920;2024-03-25T00:08:24;99132.91;;;4.50;81.92
79366;BME280;68833;53.160;17.920;2024-03-25T00:10:51;99133.27;;;4.47;82.15
79366;BME280;68833;53.160;17.920;2024-03-25T00:13:18;99129.14;;;4.44;82.18
79366;BME280;68833;53.160;17.920;2024-03-25T00:15:47;99128.10;;;4.42;82.08
79366;BME280;68833;53.160;17.920;2024-03-25T00:18:14;99128.83;;;4.41;82.17
79366;BME280;68833;53.160;17.920;2024-03-25T00:20:41;99128.13;;;4.41;82.41
79366;BME280;68833;53.160;17.920;2024-03-25T00:23:12;99127.96;;;4.39;82.68
79366;BME280;68833;53.160;17.920;2024-03-25T00:25:39;99129.18;;;4.38;82.51
79366;BME280;68833;53.160;17.920;2024-03-25T00:28:12;99125.88;;;4.38;82.35
79366;BME280;68833;53.160;17.920;2024-03-25T00:30:39;99129.55;;;4.37;82.96
79366;BME280;68833;53.160;17.920;2024-03-25T00:33:06;99127.48;;;4.34;82.77
79366;BME280;68833;53.160;17.920;2024-03-25T00:35:33;99125.41;;;4.33;82.45
79366;BME280;68833;53.160;17.920;2024-03-25T00:38:01;99122.30;;;4.32;82.56
79366;BME280;68833;53.160;17.920;2024-03-25T00:40:28;99118.81;;;4.31;82.84
79366;BME280;68833;53.160;17.920;2024-03-25T00:42:58;99117.78;;;4.30;82.77
79366;BME280;68833;53.160;17.920;2024-03-25T00:45:25;99116.42;;;4.28;82.55
79366;BME280;68833;53.160;17.920;2024-03-25T00:47:57;99122.85;;;4.27;82.98
79366;BME280;68833;53.160;17.920;2024-03-25T00:50:26;99119.02;;;4.29;82.61
79366;BME280;68833;53.160;17.920;2024-03-25T00:52:53;99117.60;;;4.31;82.69
79366;BME280;68833;53.160;17.920;2024-03-25T00:55:23;99116.00;;;4.34;82.64
79366;BME280;68833;53.160;17.920;2024-03-25T00:57:51;99112.70;;;4.36;82.90
79366;BME280;68833;53.160;17.920;2024-03-25T01:00:20;99116.14;;;4.38;82.66
79366;BME280;68833;53.160;17.920;2024-03-25T01:02:47;99110.77;;;4.38;82.99
79366;BME280;68833;53.160;17.920;2024-03-25T01:05:16;99107.80;;;4.39;83.02
79366;BME280;68833;53.160;17.920;2024-03-25T01:07:43;99103.75;;;4.42;82.81
79366;BME280;68833;53.160;17.920;2024-03-25T01:10:09;99103.23;;;4.44;82.38
79366;BME280;68833;53.160;17.920;2024-03-25T01:12:37;99103.05;;;4.44;82.84
79366;BME280;68833;53.160;17.920;2024-03-25T01:15:06;99101.50;;;4.44;82.60
79366;BME280;68833;53.160;17.920;2024-03-25T01:17:34;99100.66;;;4.40;82.77
79366;BME280;68833;53.160;17.920;2024-03-25T01:20:01;99099.12;;;4.38;82.46
79366;BME280;68833;53.160;17.920;2024-03-25T01:22:28;99101.05;;;4.37;82.59
79366;BME280;68833;53.160;17.920;2024-03-25T01:24:55;99096.36;;;4.37;82.73
79366;BME280;68833;53.160;17.920;2024-03-25T01:27:22;99092.20;;;4.36;82.52
79366;BME280;68833;53.160;17.920;2024-03-25T01:29:49;99096.17;;;4.36;82.36
79366;BME280;68833;53.160;17.920;2024-03-25T01:32:17;99093.23;;;4.36;82.45
79366;BME280;68833;53.160;17.920;2024-03-25T01:34:46;99090.11;;;4.34;82.59
79366;BME280;68833;53.160;17.920;2024-03-25T01:37:13;99088.91;;;4.32;82.44
79366;BME280;68833;53.160;17.920;2024-03-25T01:39:40;99091.72;;;4.31;82.48
79366;BME280;68833;53.160;17.920;2024-03-25T01:42:09;99093.11;;;4.30;82.93
79366;BME280;68833;53.160;17.920;2024-03-25T01:44:36;99090.35;;;4.29;82.90
79366;BME280;68833;53.160;17.920;2024-03-25T01:47:04;99087.94;;;4.25;82.60
79366;BME280;68833;53.160;17.920;2024-03-25T01:49:31;99090.72;;;4.25;82.78
79366;BME280;68833;53.160;17.920;2024-03-25T01:51:58;99089.35;;;4.23;82.93
79366;BME280;68833;53.160;17.920;2024-03-25T01:54:28;99084.33;;;4.21;82.54
79366;BME280;68833;53.160;17.920;2024-03-25T01:56:55;99093.89;;;4.21;82.27
79366;BME280;68833;53.160;17.920;2024-03-25T01:59:26;99091.79;;;4.21;82.19
79366;BME280;68833;53.160;17.920;2024-03-25T02:01:55;99091.98;;;4.19;82.52
79366;BME280;68833;53.160;17.920;2024-03-25T02:08:43;99090.66;;;4.12;82.33
79366;BME280;68833;53.160;17.920;2024-03-25T02:11:10;99092.44;;;4.09;82.35
79366;BME280;68833;53.160;17.920;2024-03-25T02:14:01;99093.67;;;4.06;82.18
79366;BME280;68833;53.160;17.920;2024-03-25T02:16:31;99094.20;;;4.05;82.33
79366;BME280;68833;53.160;17.920;2024-03-25T02:18:58;99096.98;;;4.03;82.21
79366;BME280;68833;53.160;17.920;2024-03-25T02:21:25;99100.14;;;4.01;82.37
79366;BME280;68833;53.160;17.920;2024-03-25T02:23:56;99104.65;;;4.01;82.72
79366;BME280;68833;53.160;17.920;2024-03-25T02:26:27;99105.36;;;4.00;82.65
79366;BME280;68833;53.160;17.920;2024-03-25T02:29:00;99107.82;;;3.97;82.27
79366;BME280;68833;53.160;17.920;2024-03-25T02:31:27;99106.27;;;3.96;82.14
79366;BME280;68833;53.160;17.920;2024-03-25T02:33:54;99106.09;;;3.97;82.43
79366;BME280;68833;53.160;17.920;2024-03-25T02:36:21;99104.00;;;3.96;82.38
79366;BME280;68833;53.160;17.920;2024-03-25T02:38:48;99102.96;;;3.96;82.45
79366;BME280;68833;53.160;17.920;2024-03-25T02:41:16;99107.48;;;3.95;82.37
79366;BME280;68833;53.160;17.920;2024-03-25T02:43:44;99108.17;;;3.94;82.45
79366;BME280;68833;53.160;17.920;2024-03-25T02:46:11;99108.20;;;3.93;82.51
79366;BME280;68833;53.160;17.920;2024-03-25T02:48:38;99107.16;;;3.91;82.45
79366;BME280;68833;53.160;17.920;2024-03-25T02:51:05;99110.47;;;3.90;82.27
79366;BME280;68833;53.160;17.920;2024-03-25T02:53:34;99111.51;;;3.90;82.94
79366;BME280;68833;53.160;17.920;2024-03-25T02:56:04;99112.73;;;3.90;82.71
79366;BME280;68833;53.160;17.920;2024-03-25T02:58:33;99109.95;;;3.89;82.65
79366;BME280;68833;53.160;17.920;2024-03-25T03:01:00;99115.86;;;3.87;82.70
79366;BME280;68833;53.160;17.920;2024-03-25T03:03:27;99115.37;;;3.86;82.81
79366;BME280;68833;53.160;17.920;2024-03-25T03:05:57;99114.68;;;3.85;82.55
79366;BME280;68833;53.160;17.920;2024-03-25T03:08:25;99116.42;;;3.85;82.78
79366;BME280;68833;53.160;17.920;2024-03-25T03:10:52;99120.05;;;3.86;82.86
79366;BME280;68833;53.160;17.920;2024-03-25T03:13:20;99123.00;;;3.86;82.82
79366;BME280;68833;53.160;17.920;2024-03-25T03:15:47;99122.66;;;3.86;82.99
79366;BME280;68833;53.160;17.920;2024-03-25T03:18:20;99125.27;;;3.85;82.82
79366;BME280;68833;53.160;17.920;2024-03-25T03:20:51;99124.94;;;3.84;83.19
79366;BME280;68833;53.160;17.920;2024-03-25T03:23:23;99126.50;;;3.84;83.07
79366;BME280;68833;53.160;17.920;2024-03-25T03:25:50;99126.64;;;3.86;82.80
79366;BME280;68833;53.160;17.920;2024-03-25T03:28:20;99127.50;;;3.88;83.17
79366;BME280;68833;53.160;17.920;2024-03-25T03:30:47;99129.23;;;3.89;83.18
79366;BME280;68833;53.160;17.920;2024-03-25T03:33:14;99128.19;;;3.90;83.17
79366;BME280;68833;53.160;17.920;2024-03-25T03:35:42;99127.34;;;3.89;82.82
79366;BME280;68833;53.160;17.920;2024-03-25T03:38:09;99130.27;;;3.90;83.41
79366;BME280;68833;53.160;17.920;2024-03-25T03:40:36;99137.19;;;3.93;82.87
79366;BME280;68833;53.160;17.920;2024-03-25T03:43:03;99132.51;;;3.93;83.10
79366;BME280;68833;53.160;17.920;2024-03-25T03:45:33;99137.02;;;3.94;83.20
79366;BME280;68833;53.160;17.920;2024-03-25T03:48:02;99140.48;;;3.94;82.69
79366;BME280;68833;53.160;17.920;2024-03-25T03:50:30;99139.63;;;3.94;82.93
79366;BME280;68833;53.160;17.920;2024-03-25T03:52:59;99139.13;;;3.92;83.05
79366;BME280;68833;53.160;17.920;2024-03-25T03:55:26;99139.30;;;3.91;83.02
79366;BME280;68833;53.160;17.920;2024-03-25T03:57:53;99141.90;;;3.91;83.18
79366;BME280;68833;53.160;17.920;2024-03-25T04:00:21;99143.46;;;3.92;82.88
79366;BME280;68833;53.160;17.920;2024-03-25T04:02:48;99143.46;;;3.92;83.29
79366;BME280;68833;53.160;17.920;2024-03-25T04:05:16;99148.84;;;3.94;83.14
79366;BME280;68833;53.160;17.920;2024-03-25T04:07:43;99142.59;;;3.93;83.13
79366;BME280;68833;53.160;17.920;2024-03-25T04:10:11;99143.61;;;3.95;83.03
79366;BME280;68833;53.160;17.920;2024-03-25T04:12:39;99141.33;;;3.97;83.22
79366;BME280;68833;53.160;17.920;2024-03-25T04:15:07;99143.08;;;3.98;83.11
79366;BME280;68833;53.160;17.920;2024-03-25T04:17:35;99144.80;;;3.98;83.12
79366;BME280;68833;53.160;17.920;2024-03-25T04:20:02;99146.89;;;3.97;83.13
79366;BME280;68833;53.160;17.920;2024-03-25T04:22:46;99152.63;;;3.96;83.26
79366;BME280;68833;53.160;17.920;2024-03-25T04:25:13;99153.16;;;3.95;82.94
79366;BME280;68833;53.160;17.920;2024-03-25T04:27:45;99154.71;;;3.97;83.62
79366;BME280;68833;53.160;17.920;2024-03-25T04:30:13;99158.19;;;3.98;83.45
79366;BME280;68833;53.160;17.920;2024-03-25T04:32:41;99160.08;;;4.00;83.35
79366;BME280;68833;53.160;17.920;2024-03-25T04:35:10;99158.68;;;4.00;83.44
79366;BME280;68833;53.160;17.920;2024-03-25T04:37:37;99165.98;;;4.01;83.28
79366;BME280;68833;53.160;17.920;2024-03-25T04:40:05;99159.91;;;3.98;83.46
79366;BME280;68833;53.160;17.920;2024-03-25T04:42:33;99169.28;;;4.02;83.09
79366;BME280;68833;53.160;17.920;2024-03-25T04:45:00;99167.69;;;4.03;83.43
79366;BME280;68833;53.160;17.920;2024-03-25T04:47:27;99170.99;;;4.05;83.13
79366;BME280;68833;53.160;17.920;2024-03-25T04:50:00;99170.29;;;4.05;83.12
79366;BME280;68833;53.160;17.920;2024-03-25T04:52:29;99172.55;;;4.06;83.44
79366;BME280;68833;53.160;17.920;2024-03-25T04:54:58;99176.89;;;4.05;83.29
79366;BME280;68833;53.160;17.920;2024-03-25T04:57:31;99179.86;;;4.03;83.32
79366;BME280;68833;53.160;17.920;2024-03-25T04:59:58;99182.27;;;4.05;83.51
79366;BME280;68833;53.160;17.920;2024-03-25T05:02:26;99184.54;;;4.06;83.37
79366;BME280;68833;53.160;17.920;2024-03-25T05:04:55;99189.20;;;4.09;83.49
79366;BME280;68833;53.160;17.920;2024-03-25T05:07:22;99193.71;;;4.10;83.21
79366;BME280;68833;53.160;17.920;2024-03-25T05:09:49;99194.24;;;4.10;83.45
79366;BME280;68833;53.160;17.920;2024-03-25T05:12:18;99196.33;;;4.11;83.36
79366;BME280;68833;53.160;17.920;2024-03-25T05:14:49;99198.04;;;4.12;83.18
79366;BME280;68833;53.160;17.920;2024-03-25T05:17:18;99197.48;;;4.15;83.20
79366;BME280;68833;53.160;17.920;2024-03-25T05:19:46;99193.83;;;4.18;83.40
79366;BME280;68833;53.160;17.920;2024-03-25T05:22:13;99198.67;;;4.20;83.39
79366;BME280;68833;53.160;17.920;2024-03-25T05:24:40;99198.66;;;4.20;83.62
79366;BME280;68833;53.160;17.920;2024-03-25T05:27:08;99199.19;;;4.22;83.51
79366;BME280;68833;53.160;17.920;2024-03-25T05:29:35;99197.95;;;4.25;83.89
79366;BME280;68833;53.160;17.920;2024-03-25T05:32:05;99200.37;;;4.26;83.52
79366;BME280;68833;53.160;17.920;2024-03-25T05:34:32;99204.69;;;4.30;83.61
79366;BME280;68833;53.160;17.920;2024-03-25T05:36:59;99207.98;;;4.30;83.39
79366;BME280;68833;53.160;17.920;2024-03-25T05:39:26;99209.05;;;4.29;83.82
79366;BME280;68833;53.160;17.920;2024-03-25T05:41:53;99212.02;;;4.26;83.64
79366;BME280;68833;53.160;17.920;2024-03-25T05:44:20;99218.28;;;4.26;83.61
79366;BME280;68833;53.160;17.920;2024-03-25T05:46:47;99220.71;;;4.26;83.67
79366;BME280;68833;53.160;17.920;2024-03-25T05:49:14;99219.14;;;4.27;83.52
79366;BME280;68833;53.160;17.920;2024-03-25T05:51:41;99219.83;;;4.28;83.87
79366;BME280;68833;53.160;17.920;2024-03-25T05:54:07;99223.98;;;4.30;83.74
79366;BME280;68833;53.160;17.920;2024-03-25T05:56:34;99223.63;;;4.32;84.12
79366;BME280;68833;53.160;17.920;2024-03-25T05:59:01;99223.78;;;4.33;83.78
79366;BME280;68833;53.160;17.920;2024-03-25T06:01:29;99231.25;;;4.34;84.16
79366;BME280;68833;53.160;17.920;2024-03-25T06:03:55;99233.14;;;4.36;83.78
79366;BME280;68833;53.160;17.920;2024-03-25T06:06:23;99238.69;;;4.38;83.97
79366;BME280;68833;53.160;17.920;2024-03-25T06:08:49;99240.27;;;4.38;84.39
79366;BME280;68833;53.160;17.920;2024-03-25T06:11:17;99241.64;;;4.41;83.81
79366;BME280;68833;53.160;17.920;2024-03-25T06:13:47;99246.48;;;4.43;84.02
79366;BME280;68833;53.160;17.920;2024-03-25T06:16:18;99247.69;;;4.44;84.18
79366;BME280;68833;53.160;17.920;2024-03-25T06:18:48;99247.48;;;4.48;84.11
79366;BME280;68833;53.160;17.920;2024-03-25T06:21:17;99251.48;;;4.50;84.62
79366;BME280;68833;53.160;17.920;2024-03-25T06:23:44;99259.80;;;4.51;84.27
79366;BME280;68833;53.160;17.920;2024-03-25T06:26:14;99256.16;;;4.51;84.40
79366;BME280;68833;53.160;17.920;2024-03-25T06:28:41;99260.50;;;4.52;84.24
79366;BME280;68833;53.160;17.920;2024-03-25T06:31:09;99259.63;;;4.53;84.30
79366;BME280;68833;53.160;17.920;2024-03-25T06:33:55;99267.59;;;4.56;84.35
79366;BME280;68833;53.160;17.920;2024-03-25T06:36:46;99274.70;;;4.59;84.25
79366;BME280;68833;53.160;17.920;2024-03-25T06:39:15;99277.64;;;4.61;84.36
79366;BME280;68833;53.160;17.920;2024-03-25T06:41:42;99278.00;;;4.60;84.68
79366;BME280;68833;53.160;17.920;2024-03-25T06:44:11;99275.73;;;4.61;84.50
79366;BME280;68833;53.160;17.920;2024-03-25T06:46:39;99281.45;;;4.65;84.81
79366;BME280;68833;53.160;17.920;2024-03-25T06:49:08;99282.11;;;4.68;84.29
79366;BME280;68833;53.160;17.920;2024-03-25T06:51:35;99282.45;;;4.70;84.84
79366;BME280;68833;53.160;17.920;2024-03-25T06:54:05;99283.84;;;4.71;84.67
79366;BME280;68833;53.160;17.920;2024-03-25T06:56:32;99292.34;;;4.71;84.89
79366;BME280;68833;53.160;17.920;2024-03-25T06:58:59;99291.48;;;4.72;85.25
79366;BME280;68833;53.160;17.920;2024-03-25T07:01:26;99292.14;;;4.76;85.01
79366;BME280;68833;53.160;17.920;2024-03-25T07:03:53;99297.67;;;4.78;85.08
79366;BME280;68833;53.160;17.920;2024-03-25T07:06:20;99298.19;;;4.81;85.39
79366;BME280;68833;53.160;17.920;2024-03-25T07:08:50;99297.99;;;4.82;85.44
79366;BME280;68833;53.160;17.920;2024-03-25T07:11:18;99303.73;;;4.84;85.07
79366;BME280;68833;53.160;17.920;2024-03-25T07:13:54;99306.33;;;4.85;85.09
79366;BME280;68833;53.160;17.920;2024-03-25T07:16:25;99310.48;;;4.89;85.61
79366;BME280;68833;53.160;17.920;2024-03-25T07:18:52;99316.19;;;4.93;85.14
79366;BME280;68833;53.160;17.920;2024-03-25T07:21:21;99319.11;;;4.96;85.81
79366;BME280;68833;53.160;17.920;2024-03-25T07:23:48;99322.75;;;4.97;85.40
79366;BME280;68833;53.160;17.920;2024-03-25T07:26:18;99324.32;;;4.97;85.39
79366;BME280;68833;53.160;17.920;2024-03-25T07:28:48;99321.90;;;4.96;85.33
79366;BME280;68833;53.160;17.920;2024-03-25T07:31:15;99325.19;;;4.98;85.57
79366;BME280;68833;53.160;17.920;2024-03-25T07:33:43;99330.56;;;5.01;85.36
79366;BME280;68833;53.160;17.920;2024-03-25T07:36:10;99331.21;;;5.04;85.53
79366;BME280;68833;53.160;17.920;2024-03-25T07:38:38;99330.70;;;5.05;85.01
79366;BME280;68833;53.160;17.920;2024-03-25T07:41:05;99335.02;;;5.08;85.77
79366;BME280;68833;53.160;17.920;2024-03-25T07:43:34;99336.22;;;5.11;85.77
79366;BME280;68833;53.160;17.920;2024-03-25T07:46:01;99338.96;;;5.15;86.05
79366;BME280;68833;53.160;17.920;2024-03-25T07:48:27;99337.55;;;5.18;85.51
79366;BME280;68833;53.160;17.920;2024-03-25T07:50:57;99336.98;;;5.21;85.88
79366;BME280;68833;53.160;17.920;2024-03-25T07:53:24;99338.34;;;5.26;85.67
79366;BME280;68833;53.160;17.920;2024-03-25T07:55:53;99344.40;;;5.30;85.66
79366;BME280;68833;53.160;17.920;2024-03-25T07:58:23;99342.98;;;5.33;85.64
79366;BME280;68833;53.160;17.920;2024-03-25T08:00:50;99341.39;;;5.36;85.77
79366;BME280;68833;53.160;17.920;2024-03-25T08:03:17;99341.50;;;5.43;86.30
79366;BME280;68833;53.160;17.920;2024-03-25T08:05:44;99345.27;;;5.48;85.75
79366;BME280;68833;53.160;17.920;2024-03-25T08:08:11;99347.48;;;5.52;85.71
79366;BME280;68833;53.160;17.920;2024-03-25T08:10:38;99349.70;;;5.57;86.22
79366;BME280;68833;53.160;17.920;2024-03-25T08:13:05;99355.05;;;5.62;85.55
79366;BME280;68833;53.160;17.920;2024-03-25T08:15:32;99354.66;;;5.66;85.78
79366;BME280;68833;53.160;17.920;2024-03-25T08:18:01;99356.04;;;5.68;85.69
79366;BME280;68833;53.160;17.920;2024-03-25T08:20:28;99359.48;;;5.73;85.80
79366;BME280;68833;53.160;17.920;2024-03-25T08:22:55;99363.78;;;5.76;85.40
79366;BME280;68833;53.160;17.920;2024-03-25T08:25:22;99368.27;;;5.80;85.51
79366;BME280;68833;53.160;17.920;2024-03-25T08:27:52;99368.60;;;5.82;85.77
79366;BME280;68833;53.160;17.920;2024-03-25T08:30:19;99370.86;;;5.82;85.41
79366;BME280;68833;53.160;17.920;2024-03-25T08:32:46;99375.88;;;5.86;85.55
79366;BME280;68833;53.160;17.920;2024-03-25T08:35:12;99375.14;;;5.89;85.63
79366;BME280;68833;53.160;17.920;2024-03-25T08:37:39;99374.75;;;5.93;85.42
79366;BME280;68833;53.160;17.920;2024-03-25T08:40:07;99371.61;;;5.96;85.50
79366;BME280;68833;53.160;17.920;2024-03-25T08:42:34;99377.61;;;6.05;85.83
79366;BME280;68833;53.160;17.920;2024-03-25T08:45:02;99380.51;;;6.11;85.64
79366;BME280;68833;53.160;17.920;2024-03-25T08:47:32;99383.42;;;6.14;85.63
79366;BME280;68833;53.160;17.920;2024-03-25T08:50:01;99386.55;;;6.16;85.29
79366;BME280;68833;53.160;17.920;2024-03-25T08:52:31;99387.75;;;6.17;84.79
79366;BME280;68833;53.160;17.920;2024-03-25T08:54:58;99391.95;;;6.16;84.86
79366;BME280;68833;53.160;17.920;2024-03-25T08:57:25;99394.21;;;6.17;84.96
79366;BME280;68833;53.160;17.920;2024-03-25T08:59:52;99391.58;;;6.18;85.07
79366;BME280;68833;53.160;17.920;2024-03-25T09:02:19;99392.42;;;6.19;85.14
79366;BME280;68833;53.160;17.920;2024-03-25T09:04:46;99395.19;;;6.22;85.03
79366;BME280;68833;53.160;17.920;2024-03-25T09:07:16;99399.55;;;6.21;84.94
79366;BME280;68833;53.160;17.920;2024-03-25T09:09:43;99402.84;;;6.22;84.66
79366;BME280;68833;53.160;17.920;2024-03-25T09:12:30;99408.08;;;6.22;84.80
79366;BME280;68833;53.160;17.920;2024-03-25T09:14:58;99410.71;;;6.21;84.70
79366;BME280;68833;53.160;17.920;2024-03-25T09:17:25;99411.39;;;6.23;84.65
79366;BME280;68833;53.160;17.920;2024-03-25T09:19:52;99409.27;;;6.25;84.66
79366;BME280;68833;53.160;17.920;2024-03-25T09:22:19;99416.20;;;6.29;84.71
79366;BME280;68833;53.160;17.920;2024-03-25T09:24:47;99414.08;;;6.32;84.79
79366;BME280;68833;53.160;17.920;2024-03-25T09:27:14;99419.63;;;6.34;84.84
79366;BME280;68833;53.160;17.920;2024-03-25T09:29:45;99419.98;;;6.34;84.70
79366;BME280;68833;53.160;17.920;2024-03-25T09:32:12;99416.65;;;6.35;84.58
79366;BME280;68833;53.160;17.920;2024-03-25T09:34:39;99425.98;;;6.42;84.68
79366;BME280;68833;53.160;17.920;2024-03-25T09:37:06;99422.13;;;6.44;84.51
79366;BME280;68833;53.160;17.920;2024-03-25T09:39:36;99426.25;;;6.48;84.47
79366;BME280;68833;53.160;17.920;2024-03-25T09:42:08;99424.14;;;6.50;84.45
79366;BME280;68833;53.160;17.920;2024-03-25T09:44:36;99430.72;;;6.54;84.55
79366;BME280;68833;53.160;17.920;2024-03-25T09:47:03;99432.05;;;6.59;84.46
79366;BME280;68833;53.160;17.920;2024-03-25T09:49:31;99430.58;;;6.65;83.99
79366;BME280;68833;53.160;17.920;2024-03-25T09:52:01;99431.69;;;6.71;84.18
79366;BME280;68833;53.160;17.920;2024-03-25T09:54:29;99426.05;;;6.77;83.88
79366;BME280;68833;53.160;17.920;2024-03-25T09:57:01;99426.44;;;6.86;84.06
79366;BME280;68833;53.160;17.920;2024-03-25T09:59:30;99427.34;;;6.96;83.48
79366;BME280;68833;53.160;17.920;2024-03-25T10:01:58;99426.34;;;7.05;83.19
79366;BME280;68833;53.160;17.920;2024-03-25T10:04:26;99427.05;;;7.16;82.70
79366;BME280;68833;53.160;17.920;2024-03-25T10:06:53;99427.73;;;7.28;82.98
79366;BME280;68833;53.160;17.920;2024-03-25T10:09:20;99431.86;;;7.42;82.73
79366;BME280;68833;53.160;17.920;2024-03-25T10:11:49;99432.41;;;7.52;82.21
79366;BME280;68833;53.160;17.920;2024-03-25T10:14:16;99428.11;;;7.57;81.59
79366;BME280;68833;53.160;17.920;2024-03-25T10:16:48;99430.62;;;7.65;81.49
79366;BME280;68833;53.160;17.920;2024-03-25T10:19:18;99430.34;;;7.71;81.05
79366;BME280;68833;53.160;17.920;2024-03-25T10:21:45;99432.02;;;7.73;80.67
79366;BME280;68833;53.160;17.920;2024-03-25T10:24:16;99432.49;;;7.77;81.06
79366;BME280;68833;53.160;17.920;2024-03-25T10:26:43;99438.33;;;7.84;80.90
79366;BME280;68833;53.160;17.920;2024-03-25T10:29:11;99441.48;;;7.92;80.32
79366;BME280;68833;53.160;17.920;2024-03-25T10:31:38;99437.49;;;8.01;80.55
79366;BME280;68833;53.160;17.920;2024-03-25T10:34:05;99438.92;;;8.07;80.54
79366;BME280;68833;53.160;17.920;2024-03-25T10:36:32;99442.75;;;8.18;80.08
79366;BME280;68833;53.160;17.920;2024-03-25T10:39:01;99440.30;;;8.27;79.70
79366;BME280;68833;53.160;17.920;2024-03-25T10:41:34;99441.65;;;8.38;79.35
79366;BME280;68833;53.160;17.920;2024-03-25T10:44:03;99441.45;;;8.50;78.85
79366;BME280;68833;53.160;17.920;2024-03-25T10:46:34;99439.41;;;8.55;77.77
79366;BME280;68833;53.160;17.920;2024-03-25T10:49:26;99440.79;;;8.56;77.56
79366;BME280;68833;53.160;17.920;2024-03-25T10:51:54;99438.59;;;8.52;76.89
79366;BME280;68833;53.160;17.920;2024-03-25T10:54:23;99441.27;;;8.50;76.72
79366;BME280;68833;53.160;17.920;2024-03-25T10:56:51;99448.89;;;8.45;76.30
79366;BME280;68833;53.160;17.920;2024-03-25T10:59:18;99452.52;;;8.38;76.47
79366;BME280;68833;53.160;17.920;2024-03-25T11:03:38;99465.13;;;8.28;77.17
79366;BME280;68833;53.160;17.920;2024-03-25T11:06:05;99470.61;;;8.16;77.35
79366;BME280;68833;53.160;17.920;2024-03-25T11:08:32;99474.26;;;8.07;77.55
79366;BME280;68833;53.160;17.920;2024-03-25T11:10:59;99475.42;;;8.01;78.02
79366;BME280;68833;53.160;17.920;2024-03-25T11:13:27;99474.57;;;7.90;77.89
79366;BME280;68833;53.160;17.920;2024-03-25T11:15:56;99480.11;;;7.83;77.85
79366;BME280;68833;53.160;17.920;2024-03-25T11:18:25;99478.83;;;7.76;78.18
79366;BME280;68833;53.160;17.920;2024-03-25T11:21:03;99481.20;;;7.70;78.17
79366;BME280;68833;53.160;17.920;2024-03-25T11:23:41;99477.98;;;7.65;78.27
79366;BME280;68833;53.160;17.920;2024-03-25T11:26:24;99469.30;;;7.61;78.54
79366;BME280;68833;53.160;17.920;2024-03-25T11:28:51;99477.77;;;7.66;78.72
79366;BME280;68833;53.160;17.920;2024-03-25T11:31:20;99478.48;;;7.66;79.08
79366;BME280;68833;53.160;17.920;2024-03-25T11:33:48;99482.13;;;7.68;79.24
79366;BME280;68833;53.160;17.920;2024-03-25T11:36:15;99485.93;;;7.69;79.38
79366;BME280;68833;53.160;17.920;2024-03-25T11:38:42;99483.84;;;7.69;79.17
79366;BME280;68833;53.160;17.920;2024-03-25T11:41:11;99483.52;;;7.68;79.04
79366;BME280;68833;53.160;17.920;2024-03-25T11:43:38;99487.58;;;7.66;78.87
79366;BME280;68833;53.160;17.920;2024-03-25T11:46:05;99485.35;;;7.63;79.33
79366;BME280;68833;53.160;17.920;2024-03-25T11:48:33;99484.17;;;7.59;79.49
79366;BME280;68833;53.160;17.920;2024-03-25T11:51:03;99490.00;;;7.56;79.51
79366;BME280;68833;53.160;17.920;2024-03-25T11:53:30;99489.83;;;7.55;79.37
79366;BME280;68833;53.160;17.920;2024-03-25T11:55:59;99488.95;;;7.55;79.54
79366;BME280;68833;53.160;17.920;2024-03-25T11:58:26;99489.64;;;7.56;79.71
79366;BME280;68833;53.160;17.920;2024-03-25T12:00:53;99487.70;;;7.56;79.59
79366;BME280;68833;53.160;17.920;2024-03-25T12:03:21;99488.41;;;7.57;79.61
79366;BME280;68833;53.160;17.920;2024-03-25T12:05:48;99486.10;;;7.59;80.04
79366;BME280;68833;53.160;17.920;2024-03-25T12:08:15;99492.08;;;7.58;79.84
79366;BME280;68833;53.160;17.920;2024-03-25T12:10:42;99494.18;;;7.56;79.62
79366;BME280;68833;53.160;17.920;2024-03-25T12:13:27;99496.83;;;7.55;79.64
79366;BME280;68833;53.160;17.920;2024-03-25T12:15:54;99498.05;;;7.55;79.32
79366;BME280;68833;53.160;17.920;2024-03-25T12:18:22;99498.91;;;7.56;79.49
79366;BME280;68833;53.160;17.920;2024-03-25T12:20:49;99498.21;;;7.56;79.17
79366;BME280;68833;53.160;17.920;2024-03-25T12:23:16;99499.61;;;7.55;78.72
79366;BME280;68833;53.160;17.920;2024-03-25T12:25:48;99504.19;;;7.54;78.66
79366;BME280;68833;53.160;17.920;2024-03-25T12:28:16;99505.42;;;7.53;78.50
79366;BME280;68833;53.160;17.920;2024-03-25T12:30:51;99502.83;;;7.51;78.62
79366;BME280;68833;53.160;17.920;2024-03-25T12:33:19;99502.60;;;7.54;79.10
79366;BME280;68833;53.160;17.920;2024-03-25T12:35:46;99503.77;;;7.58;78.72
79366;BME280;68833;53.160;17.920;2024-03-25T12:40:54;99509.02;;;7.68;78.51
79366;BME280;68833;53.160;17.920;2024-03-25T12:43:34;99511.57;;;7.72;78.41
79366;BME280;68833;53.160;17.920;2024-03-25T12:46:02;99510.43;;;7.79;78.59
79366;BME280;68833;53.160;17.920;2024-03-25T12:48:31;99509.65;;;7.83;78.74
79366;BME280;68833;53.160;17.920;2024-03-25T12:50:58;99505.92;;;7.86;78.51
79366;BME280;68833;53.160;17.920;2024-03-25T12:53:26;99505.69;;;7.90;77.97
79366;BME280;68833;53.160;17.920;2024-03-25T12:55:53;99503.88;;;7.94;78.56
79366;BME280;68833;53.160;17.920;2024-03-25T12:58:20;99501.38;;;7.97;78.05
79366;BME280;68833;53.160;17.920;2024-03-25T13:00:47;99499.98;;;7.96;78.18
79366;BME280;68833;53.160;17.920;2024-03-25T13:03:14;99501.02;;;7.97;78.10
79366;BME280;68833;53.160;17.920;2024-03-25T13:05:43;99507.52;;;7.96;78.10
79366;BME280;68833;53.160;17.920;2024-03-25T13:08:10;99505.27;;;7.94;78.54
79366;BME280;68833;53.160;17.920;2024-03-25T13:10:37;99505.13;;;7.92;78.09
79366;BME280;68833;53.160;17.920;2024-03-25T13:13:04;99505.98;;;7.93;78.29
79366;BME280;68833;53.160;17.920;2024-03-25T13:15:32;99508.39;;;7.96;78.37